»·PEaware :: QXE483 KPDX-KMFR

QXE483 :: KPDX-KMFR

FLIGHT INFORMATION

Flight Status: Arrived
Operator:
Horizon Air
More flights by this operator :: More flights under this callsign
Pilot: Dave P. (45)
Aircraft: DEHAVILLAND DASH 8 400
(DH8D)
More flights by this aircraft type
Origin: KPDX Portland Intl
United States
Destination: KMFR Rogue Valley Intl-Medford
United States
More flights between these airports :: More routes between these airports
Route: +PTLD1 EUG OED
File this flight plan on PilotEdge
Remarks: RMK / SIMBRIEF
Altitude:
(Current/Filed)
21,000ft
Speed:
(Current/Filed)
323kts
Departed: 02-Jun-19 08:24 AM
Arrived: 02-Jun-19 09:07 AM
Distance/Time
Traveled:
194nm/0:43
Distance/Time
To Go:
Arrived

Flight Plot

Page will automatically refresh every two minutes.

Flight plan parsing failed; only flown route is shown


Map Options




Map Legend


Flown Route
Filed Route
Departure Airport
Arrival Airport
Navaid (VOR, NDB)
Fix

Horizontal Profiles

Position Reports

Time Latitude Longitude Heading Altitude Ground
Speed
02-Jun-19 07:40 45.586226 -122.592513 82 37ft 0kts
02-Jun-19 07:41 45.586226 -122.592513 82 37ft 0kts
02-Jun-19 07:42 45.586226 -122.592513 82 37ft 0kts
02-Jun-19 07:43 45.586226 -122.592513 82 37ft 0kts
02-Jun-19 07:44 45.586226 -122.592513 82 37ft 0kts
02-Jun-19 07:45 45.586226 -122.592513 82 37ft 0kts
02-Jun-19 07:46 45.586226 -122.592513 82 37ft 0kts
02-Jun-19 07:47 45.586226 -122.592513 82 37ft 0kts
02-Jun-19 07:48 45.586226 -122.592513 82 37ft 0kts
02-Jun-19 07:49 45.586226 -122.592513 82 37ft 0kts
02-Jun-19 07:50 45.586226 -122.592513 82 37ft 0kts
02-Jun-19 07:51 45.586226 -122.592513 82 37ft 0kts
02-Jun-19 07:52 45.586226 -122.592513 82 37ft 0kts
02-Jun-19 07:53 45.586226 -122.592513 82 37ft 0kts
02-Jun-19 07:54 45.586226 -122.592513 82 37ft 0kts
02-Jun-19 07:55 45.586226 -122.592513 82 37ft 0kts
02-Jun-19 07:56 45.586226 -122.592513 82 37ft 0kts
02-Jun-19 07:57 45.586226 -122.592513 82 37ft 0kts
02-Jun-19 07:58 45.586226 -122.592513 82 37ft 0kts
02-Jun-19 07:59 45.586226 -122.592513 82 37ft 0kts
02-Jun-19 08:00 45.586226 -122.592513 82 37ft 0kts
02-Jun-19 08:01 45.586226 -122.592513 82 37ft 0kts
02-Jun-19 08:02 45.586226 -122.592513 82 37ft 0kts
02-Jun-19 08:03 45.586226 -122.592513 82 37ft 0kts
02-Jun-19 08:04 45.586226 -122.592513 82 37ft 0kts
02-Jun-19 08:05 45.586226 -122.592513 82 37ft 0kts
02-Jun-19 08:06 45.586226 -122.592513 82 37ft 0kts
02-Jun-19 08:07 45.586226 -122.592513 82 37ft 0kts
02-Jun-19 08:08 45.586226 -122.592513 82 37ft 0kts
02-Jun-19 08:09 45.586226 -122.592513 82 37ft 0kts
02-Jun-19 08:10 45.586226 -122.592513 82 37ft 0kts
02-Jun-19 08:11 45.586226 -122.592513 82 37ft 0kts
02-Jun-19 08:12 45.586226 -122.592513 82 37ft 0kts
02-Jun-19 08:13 45.586226 -122.592514 82 37ft 0kts
02-Jun-19 08:14 45.586173 -122.593121 83 37ft 0kts
02-Jun-19 08:15 45.586173 -122.593121 83 37ft 0kts
02-Jun-19 08:16 45.586173 -122.593121 83 37ft 0kts
02-Jun-19 08:17 45.586400 -122.593937 304 37ft 13kts
02-Jun-19 08:18 45.588934 -122.600122 299 37ft 18kts
02-Jun-19 08:19 45.591125 -122.600707 39 37ft 15kts
02-Jun-19 08:21 45.594129 -122.597874 32 37ft 10kts
02-Jun-19 08:22 45.594448 -122.597482 45 37ft 0kts
02-Jun-19 08:23 45.594694 -122.595337 116 37ft 21kts
02-Jun-19 08:24 45.576863 -122.550423 118 1190ft 176kts
02-Jun-19 08:25 45.550765 -122.484564 119 3949ft 194kts
02-Jun-19 08:26 45.514615 -122.425879 177 6667ft 209kts
02-Jun-19 08:27 45.460740 -122.454034 205 9412ft 202kts
02-Jun-19 08:28 45.407245 -122.485585 204 11351ft 223kts
02-Jun-19 08:29 45.344277 -122.522773 205 12694ft 256kts
02-Jun-19 08:30 45.277076 -122.562014 203 14348ft 265kts
02-Jun-19 08:31 45.212330 -122.599890 204 15675ft 269kts
02-Jun-19 08:32 45.141654 -122.641032 204 16903ft 278kts
02-Jun-19 08:33 45.069172 -122.683100 204 18052ft 285kts
02-Jun-19 08:34 44.995166 -122.725961 204 19099ft 289kts
02-Jun-19 08:35 44.920259 -122.769234 204 20034ft 294kts
02-Jun-19 08:36 44.843906 -122.813129 204 20851ft 299kts
02-Jun-19 08:37 44.764112 -122.858982 204 21018ft 322kts
02-Jun-19 08:38 44.678639 -122.907847 203 21021ft 339kts
02-Jun-19 08:39 44.590215 -122.958296 203 21023ft 349kts
02-Jun-19 08:40 44.499650 -123.009760 203 21024ft 354kts
02-Jun-19 08:41 44.408279 -123.061482 203 21025ft 356kts
02-Jun-19 08:42 44.316392 -123.113220 203 21026ft 358kts
02-Jun-19 08:42 44.239509 -123.156399 203 21026ft 359kts
02-Jun-19 08:44 44.130825 -123.215713 195 21023ft 362kts
02-Jun-19 08:44 44.047177 -123.209961 170 21027ft 364kts
02-Jun-19 08:45 43.947312 -123.189391 172 21025ft 365kts
02-Jun-19 08:46 43.846567 -123.170214 171 21022ft 366kts
02-Jun-19 08:47 43.745759 -123.150775 171 21017ft 367kts
02-Jun-19 08:48 43.644880 -123.131478 171 21012ft 366kts
02-Jun-19 08:49 43.544470 -123.112320 171 21007ft 366kts
02-Jun-19 08:50 43.444356 -123.093220 171 20389ft 355kts
02-Jun-19 08:51 43.349739 -123.075338 171 19055ft 342kts
02-Jun-19 08:52 43.255167 -123.057458 171 17268ft 344kts
02-Jun-19 08:53 43.160766 -123.039591 171 15502ft 341kts
02-Jun-19 08:54 43.067744 -123.022132 172 13757ft 335kts
02-Jun-19 08:55 42.979354 -123.005555 172 12183ft 296kts
02-Jun-19 08:56 42.900912 -122.990975 172 11458ft 280kts
02-Jun-19 08:57 42.824636 -122.976690 172 9967ft 273kts
02-Jun-19 08:58 42.751330 -122.962970 172 8604ft 253kts
02-Jun-19 08:59 42.684809 -122.950768 172 7658ft 227kts
02-Jun-19 09:00 42.625056 -122.939800 172 6473ft 212kts
02-Jun-19 09:01 42.567840 -122.929246 172 5548ft 202kts
02-Jun-19 09:02 42.513236 -122.919219 172 4712ft 197kts
02-Jun-19 09:03 42.459947 -122.915094 175 3487ft 175kts
02-Jun-19 09:04 42.417369 -122.895226 162 1930ft 150kts
02-Jun-19 09:05 42.381900 -122.876930 158 1343ft 102kts
02-Jun-19 09:06 42.376202 -122.874809 249 1342ft 0kts
02-Jun-19 09:07 42.376596 -122.875739 354 1342ft 2kts
02-Jun-19 09:08 42.372858 -122.873834 158 1342ft 21kts
02-Jun-19 09:09 42.368907 -122.871985 248 1342ft 4kts
02-Jun-19 09:10 42.368096 -122.872250 243 1342ft 1kts
02-Jun-19 09:11 42.368089 -122.872278 248 1342ft 0kts
02-Jun-19 09:12 42.368089 -122.872278 248 1342ft 0kts
02-Jun-19 09:13 42.368089 -122.872278 248 1342ft 0kts
02-Jun-19 09:14 42.368089 -122.872278 248 1342ft 0kts

Navigation Log

Ident Type
Flight plan parsing failed, navigation log unavailable